sensor_id;sensor_type;location;lat;lon;timestamp;temperature;humidity
7216;DHT22;3649;48.798;9.798;2023-08-30T00:01:12;18.80;99.90
7216;DHT22;3649;48.798;9.798;2023-08-30T00:03:39;18.80;99.90
7216;DHT22;3649;48.798;9.798;2023-08-30T00:06:06;18.80;99.90
7216;DHT22;3649;48.798;9.798;2023-08-30T00:08:34;18.70;99.90
7216;DHT22;3649;48.798;9.798;2023-08-30T00:11:02;18.70;99.90
7216;DHT22;3649;48.798;9.798;2023-08-30T00:13:31;18.80;99.90
7216;DHT22;3649;48.798;9.798;2023-08-30T00:16:00;18.80;99.90
7216;DHT22;3649;48.798;9.798;2023-08-30T00:18:29;18.80;99.90
7216;DHT22;3649;48.798;9.798;2023-08-30T00:20:57;18.70;99.90
7216;DHT22;3649;48.798;9.798;2023-08-30T00:23:24;18.70;99.90
7216;DHT22;3649;48.798;9.798;2023-08-30T00:25:51;18.70;99.90
7216;DHT22;3649;48.798;9.798;2023-08-30T00:28:18;18.70;99.90
7216;DHT22;3649;48.798;9.798;2023-08-30T00:30:45;18.70;99.90
7216;DHT22;3649;48.798;9.798;2023-08-30T00:33:12;18.70;99.90
7216;DHT22;3649;48.798;9.798;2023-08-30T00:35:41;18.70;99.90
7216;DHT22;3649;48.798;9.798;2023-08-30T00:38:08;18.70;99.90
7216;DHT22;3649;48.798;9.798;2023-08-30T00:40:39;18.70;99.90
7216;DHT22;3649;48.798;9.798;2023-08-30T00:43:07;18.70;99.90
7216;DHT22;3649;48.798;9.798;2023-08-30T00:45:35;18.70;99.90
7216;DHT22;3649;48.798;9.798;2023-08-30T00:48:05;18.70;99.90
7216;DHT22;3649;48.798;9.798;2023-08-30T00:50:33;18.60;99.90
7216;DHT22;3649;48.798;9.798;2023-08-30T00:53:01;18.60;99.90
7216;DHT22;3649;48.798;9.798;2023-08-30T00:55:35;18.60;99.90
7216;DHT22;3649;48.798;9.798;2023-08-30T00:58:03;18.70;99.90
7216;DHT22;3649;48.798;9.798;2023-08-30T01:00:31;18.60;99.90
7216;DHT22;3649;48.798;9.798;2023-08-30T01:02:58;18.60;99.90
7216;DHT22;3649;48.798;9.798;2023-08-30T01:05:25;18.50;99.90
7216;DHT22;3649;48.798;9.798;2023-08-30T01:07:52;18.50;99.90
7216;DHT22;3649;48.798;9.798;2023-08-30T01:10:25;18.50;99.90
7216;DHT22;3649;48.798;9.798;2023-08-30T01:13:00;18.50;99.90
7216;DHT22;3649;48.798;9.798;2023-08-30T01:15:32;18.50;99.90
7216;DHT22;3649;48.798;9.798;2023-08-30T01:18:02;18.50;99.90
7216;DHT22;3649;48.798;9.798;2023-08-30T01:20:35;18.40;99.90
7216;DHT22;3649;48.798;9.798;2023-08-30T01:23:15;18.40;99.90
7216;DHT22;3649;48.798;9.798;2023-08-30T01:28:45;18.40;99.90
7216;DHT22;3649;48.798;9.798;2023-08-30T01:31:13;18.40;99.90
7216;DHT22;3649;48.798;9.798;2023-08-30T01:33:40;18.40;99.90
7216;DHT22;3649;48.798;9.798;2023-08-30T01:36:07;18.40;99.90
7216;DHT22;3649;48.798;9.798;2023-08-30T01:38:36;18.40;99.90
7216;DHT22;3649;48.798;9.798;2023-08-30T01:41:04;18.30;99.90
7216;DHT22;3649;48.798;9.798;2023-08-30T01:43:32;18.30;99.90
7216;DHT22;3649;48.798;9.798;2023-08-30T01:46:00;18.30;99.90
7216;DHT22;3649;48.798;9.798;2023-08-30T01:48:29;18.20;99.90
7216;DHT22;3649;48.798;9.798;2023-08-30T01:50:57;18.20;99.90
7216;DHT22;3649;48.798;9.798;2023-08-30T01:53:28;18.20;99.90
7216;DHT22;3649;48.798;9.798;2023-08-30T01:58:46;18.30;99.90
7216;DHT22;3649;48.798;9.798;2023-08-30T02:01:13;18.30;99.90
7216;DHT22;3649;48.798;9.798;2023-08-30T02:03:42;18.30;99.90
7216;DHT22;3649;48.798;9.798;2023-08-30T02:06:17;18.30;99.90
7216;DHT22;3649;48.798;9.798;2023-08-30T02:08:53;19.60;99.90
7216;DHT22;3649;48.798;9.798;2023-08-30T02:11:27;18.20;99.90
7216;DHT22;3649;48.798;9.798;2023-08-30T02:13:57;18.20;99.90
7216;DHT22;3649;48.798;9.798;2023-08-30T02:16:26;18.20;99.90
7216;DHT22;3649;48.798;9.798;2023-08-30T02:18:53;18.20;99.90
7216;DHT22;3649;48.798;9.798;2023-08-30T02:21:21;18.10;99.90
7216;DHT22;3649;48.798;9.798;2023-08-30T02:23:51;18.10;99.90
7216;DHT22;3649;48.798;9.798;2023-08-30T02:26:20;18.10;99.90
7216;DHT22;3649;48.798;9.798;2023-08-30T02:28:47;18.00;99.90
7216;DHT22;3649;48.798;9.798;2023-08-30T02:31:14;18.00;99.90
7216;DHT22;3649;48.798;9.798;2023-08-30T02:33:41;18.10;99.90
7216;DHT22;3649;48.798;9.798;2023-08-30T02:36:11;18.00;99.90
7216;DHT22;3649;48.798;9.798;2023-08-30T02:38:38;18.00;99.90
7216;DHT22;3649;48.798;9.798;2023-08-30T02:41:05;18.00;99.90
7216;DHT22;3649;48.798;9.798;2023-08-30T02:43:32;18.00;99.90
7216;DHT22;3649;48.798;9.798;2023-08-30T02:45:58;18.10;99.90
7216;DHT22;3649;48.798;9.798;2023-08-30T02:48:27;18.10;99.90
7216;DHT22;3649;48.798;9.798;2023-08-30T02:50:55;18.00;99.90
7216;DHT22;3649;48.798;9.798;2023-08-30T02:53:22;18.00;99.90
7216;DHT22;3649;48.798;9.798;2023-08-30T02:55:49;18.00;99.90
7216;DHT22;3649;48.798;9.798;2023-08-30T02:58:16;18.00;99.90
7216;DHT22;3649;48.798;9.798;2023-08-30T03:00:42;18.00;99.90
7216;DHT22;3649;48.798;9.798;2023-08-30T03:03:10;18.00;99.90
7216;DHT22;3649;48.798;9.798;2023-08-30T03:05:38;18.00;99.90
7216;DHT22;3649;48.798;9.798;2023-08-30T03:08:05;18.00;99.90
7216;DHT22;3649;48.798;9.798;2023-08-30T03:10:33;18.00;99.90
7216;DHT22;3649;48.798;9.798;2023-08-30T03:13:00;18.10;99.90
7216;DHT22;3649;48.798;9.798;2023-08-30T03:15:27;18.00;99.90
7216;DHT22;3649;48.798;9.798;2023-08-30T03:17:53;18.00;99.90
7216;DHT22;3649;48.798;9.798;2023-08-30T03:20:20;18.00;99.90
7216;DHT22;3649;48.798;9.798;2023-08-30T03:22:48;18.00;99.90
7216;DHT22;3649;48.798;9.798;2023-08-30T03:25:15;18.10;99.90
7216;DHT22;3649;48.798;9.798;2023-08-30T03:27:44;18.10;99.90
7216;DHT22;3649;48.798;9.798;2023-08-30T03:30:11;18.20;99.90
7216;DHT22;3649;48.798;9.798;2023-08-30T03:32:38;18.20;99.90
7216;DHT22;3649;48.798;9.798;2023-08-30T03:35:05;18.10;99.90
7216;DHT22;3649;48.798;9.798;2023-08-30T03:37:32;18.10;99.90
7216;DHT22;3649;48.798;9.798;2023-08-30T03:39:59;18.10;99.90
7216;DHT22;3649;48.798;9.798;2023-08-30T03:42:26;18.10;99.90
7216;DHT22;3649;48.798;9.798;2023-08-30T03:44:53;18.10;99.90
7216;DHT22;3649;48.798;9.798;2023-08-30T03:47:19;18.10;99.90
7216;DHT22;3649;48.798;9.798;2023-08-30T03:49:46;18.10;99.90
7216;DHT22;3649;48.798;9.798;2023-08-30T03:52:14;18.10;99.90
7216;DHT22;3649;48.798;9.798;2023-08-30T03:54:41;18.10;99.90
7216;DHT22;3649;48.798;9.798;2023-08-30T03:57:08;18.10;99.90
7216;DHT22;3649;48.798;9.798;2023-08-30T03:59:35;18.10;99.90
7216;DHT22;3649;48.798;9.798;2023-08-30T04:02:01;18.10;99.90
7216;DHT22;3649;48.798;9.798;2023-08-30T04:04:28;18.10;99.90
7216;DHT22;3649;48.798;9.798;2023-08-30T04:06:55;18.00;99.90
7216;DHT22;3649;48.798;9.798;2023-08-30T04:09:22;18.10;99.90
7216;DHT22;3649;48.798;9.798;2023-08-30T04:11:49;18.10;99.90
7216;DHT22;3649;48.798;9.798;2023-08-30T04:14:16;18.10;99.90
7216;DHT22;3649;48.798;9.798;2023-08-30T04:16:42;18.10;99.90
7216;DHT22;3649;48.798;9.798;2023-08-30T04:19:09;18.10;99.90
7216;DHT22;3649;48.798;9.798;2023-08-30T04:21:36;18.10;99.90
7216;DHT22;3649;48.798;9.798;2023-08-30T04:24:03;18.10;99.90
7216;DHT22;3649;48.798;9.798;2023-08-30T04:26:30;18.10;99.90
7216;DHT22;3649;48.798;9.798;2023-08-30T04:28:57;18.10;99.90
7216;DHT22;3649;48.798;9.798;2023-08-30T04:31:26;18.10;99.90
7216;DHT22;3649;48.798;9.798;2023-08-30T04:33:54;18.10;99.90
7216;DHT22;3649;48.798;9.798;2023-08-30T04:36:22;18.10;99.90
7216;DHT22;3649;48.798;9.798;2023-08-30T04:38:48;18.10;99.90
7216;DHT22;3649;48.798;9.798;2023-08-30T04:41:28;18.10;99.90
7216;DHT22;3649;48.798;9.798;2023-08-30T04:43:55;18.10;99.90
7216;DHT22;3649;48.798;9.798;2023-08-30T04:46:22;18.10;99.90
7216;DHT22;3649;48.798;9.798;2023-08-30T04:48:49;18.20;99.90
7216;DHT22;3649;48.798;9.798;2023-08-30T04:51:17;18.20;99.90
7216;DHT22;3649;48.798;9.798;2023-08-30T04:53:44;18.20;99.90
7216;DHT22;3649;48.798;9.798;2023-08-30T04:56:12;18.20;99.90
7216;DHT22;3649;48.798;9.798;2023-08-30T04:58:39;18.30;99.90
7216;DHT22;3649;48.798;9.798;2023-08-30T05:01:06;18.20;99.90
7216;DHT22;3649;48.798;9.798;2023-08-30T05:03:33;18.20;99.90
7216;DHT22;3649;48.798;9.798;2023-08-30T05:06:01;18.20;99.90
7216;DHT22;3649;48.798;9.798;2023-08-30T05:08:27;18.30;99.90
7216;DHT22;3649;48.798;9.798;2023-08-30T05:10:54;18.20;99.90
7216;DHT22;3649;48.798;9.798;2023-08-30T05:13:22;18.10;99.90
7216;DHT22;3649;48.798;9.798;2023-08-30T05:15:48;18.20;99.90
7216;DHT22;3649;48.798;9.798;2023-08-30T05:18:15;18.10;99.90
7216;DHT22;3649;48.798;9.798;2023-08-30T05:20:42;18.10;99.90
7216;DHT22;3649;48.798;9.798;2023-08-30T05:23:09;18.00;99.90
7216;DHT22;3649;48.798;9.798;2023-08-30T05:25:38;18.00;99.90
7216;DHT22;3649;48.798;9.798;2023-08-30T05:28:05;18.00;99.90
7216;DHT22;3649;48.798;9.798;2023-08-30T05:30:32;18.10;99.90
7216;DHT22;3649;48.798;9.798;2023-08-30T05:33:00;18.10;99.90
7216;DHT22;3649;48.798;9.798;2023-08-30T05:35:27;18.10;99.90
7216;DHT22;3649;48.798;9.798;2023-08-30T05:37:53;18.10;99.90
7216;DHT22;3649;48.798;9.798;2023-08-30T05:40:20;18.20;99.90
7216;DHT22;3649;48.798;9.798;2023-08-30T05:42:47;18.20;99.90
7216;DHT22;3649;48.798;9.798;2023-08-30T05:45:14;18.20;99.90
7216;DHT22;3649;48.798;9.798;2023-08-30T05:47:41;18.20;99.90
7216;DHT22;3649;48.798;9.798;2023-08-30T05:50:08;18.20;99.90
7216;DHT22;3649;48.798;9.798;2023-08-30T05:52:35;18.20;99.90
7216;DHT22;3649;48.798;9.798;2023-08-30T05:55:02;18.30;99.90
7216;DHT22;3649;48.798;9.798;2023-08-30T05:57:29;18.30;99.90
7216;DHT22;3649;48.798;9.798;2023-08-30T06:00:01;18.30;99.90
7216;DHT22;3649;48.798;9.798;2023-08-30T06:02:28;18.40;99.90
7216;DHT22;3649;48.798;9.798;2023-08-30T06:04:55;18.30;99.90
7216;DHT22;3649;48.798;9.798;2023-08-30T06:07:21;18.40;99.90
7216;DHT22;3649;48.798;9.798;2023-08-30T06:09:48;18.50;99.90
7216;DHT22;3649;48.798;9.798;2023-08-30T06:12:16;18.40;99.90
7216;DHT22;3649;48.798;9.798;2023-08-30T06:14:43;18.50;99.90
7216;DHT22;3649;48.798;9.798;2023-08-30T06:17:16;18.50;99.90
7216;DHT22;3649;48.798;9.798;2023-08-30T06:19:44;18.50;99.90
7216;DHT22;3649;48.798;9.798;2023-08-30T06:22:11;18.40;99.90
7216;DHT22;3649;48.798;9.798;2023-08-30T06:24:38;18.50;99.90
7216;DHT22;3649;48.798;9.798;2023-08-30T06:27:05;18.50;99.90
7216;DHT22;3649;48.798;9.798;2023-08-30T06:29:32;18.50;99.90
7216;DHT22;3649;48.798;9.798;2023-08-30T06:31:59;18.50;99.90
7216;DHT22;3649;48.798;9.798;2023-08-30T06:34:26;18.60;99.90
7216;DHT22;3649;48.798;9.798;2023-08-30T06:36:53;18.60;99.90
7216;DHT22;3649;48.798;9.798;2023-08-30T06:39:20;18.70;99.90
7216;DHT22;3649;48.798;9.798;2023-08-30T06:41:47;18.80;99.90
7216;DHT22;3649;48.798;9.798;2023-08-30T06:44:14;18.80;99.90
7216;DHT22;3649;48.798;9.798;2023-08-30T06:46:42;18.90;99.90
7216;DHT22;3649;48.798;9.798;2023-08-30T06:49:09;18.90;99.90
7216;DHT22;3649;48.798;9.798;2023-08-30T06:51:36;18.90;99.90
7216;DHT22;3649;48.798;9.798;2023-08-30T06:54:03;19.00;99.90
7216;DHT22;3649;48.798;9.798;2023-08-30T06:56:30;19.00;99.90
7216;DHT22;3649;48.798;9.798;2023-08-30T06:58:57;19.10;99.90
7216;DHT22;3649;48.798;9.798;2023-08-30T07:01:24;19.10;99.90
7216;DHT22;3649;48.798;9.798;2023-08-30T07:03:51;19.10;99.90
7216;DHT22;3649;48.798;9.798;2023-08-30T07:06:18;19.10;99.90
7216;DHT22;3649;48.798;9.798;2023-08-30T07:08:45;19.00;99.90
7216;DHT22;3649;48.798;9.798;2023-08-30T07:11:12;19.10;99.90
7216;DHT22;3649;48.798;9.798;2023-08-30T07:13:58;19.20;99.90
7216;DHT22;3649;48.798;9.798;2023-08-30T07:16:25;19.20;99.90
7216;DHT22;3649;48.798;9.798;2023-08-30T07:18:52;19.30;99.90
7216;DHT22;3649;48.798;9.798;2023-08-30T07:21:19;19.30;99.90
7216;DHT22;3649;48.798;9.798;2023-08-30T07:23:46;19.30;99.90
7216;DHT22;3649;48.798;9.798;2023-08-30T07:26:13;19.30;99.90
7216;DHT22;3649;48.798;9.798;2023-08-30T07:28:40;19.40;99.90
7216;DHT22;3649;48.798;9.798;2023-08-30T07:31:07;19.40;99.90
7216;DHT22;3649;48.798;9.798;2023-08-30T07:33:35;19.40;99.90
7216;DHT22;3649;48.798;9.798;2023-08-30T07:36:02;19.40;99.90
7216;DHT22;3649;48.798;9.798;2023-08-30T07:38:29;19.50;99.90
7216;DHT22;3649;48.798;9.798;2023-08-30T07:40:56;19.50;99.90
7216;DHT22;3649;48.798;9.798;2023-08-30T07:43:23;19.60;99.90
7216;DHT22;3649;48.798;9.798;2023-08-30T07:45:50;19.60;99.90
7216;DHT22;3649;48.798;9.798;2023-08-30T07:48:17;19.60;99.90
7216;DHT22;3649;48.798;9.798;2023-08-30T07:50:44;19.70;99.90
7216;DHT22;3649;48.798;9.798;2023-08-30T07:53:11;19.70;99.90
7216;DHT22;3649;48.798;9.798;2023-08-30T07:55:39;19.70;99.90
7216;DHT22;3649;48.798;9.798;2023-08-30T07:58:06;19.80;99.90
7216;DHT22;3649;48.798;9.798;2023-08-30T08:00:37;19.80;99.90
7216;DHT22;3649;48.798;9.798;2023-08-30T08:03:04;19.80;99.90
7216;DHT22;3649;48.798;9.798;2023-08-30T08:05:31;19.80;99.90
7216;DHT22;3649;48.798;9.798;2023-08-30T08:08:00;19.80;99.90
7216;DHT22;3649;48.798;9.798;2023-08-30T08:10:31;19.80;99.90
7216;DHT22;3649;48.798;9.798;2023-08-30T08:12:58;19.90;99.90
7216;DHT22;3649;48.798;9.798;2023-08-30T08:15:26;19.90;99.90
7216;DHT22;3649;48.798;9.798;2023-08-30T08:17:53;19.90;99.90
7216;DHT22;3649;48.798;9.798;2023-08-30T08:20:20;19.90;99.90
7216;DHT22;3649;48.798;9.798;2023-08-30T08:22:47;19.90;99.90
7216;DHT22;3649;48.798;9.798;2023-08-30T08:25:14;20.00;99.90
7216;DHT22;3649;48.798;9.798;2023-08-30T08:27:42;19.90;99.90
7216;DHT22;3649;48.798;9.798;2023-08-30T08:30:10;19.90;99.90
7216;DHT22;3649;48.798;9.798;2023-08-30T08:32:37;19.90;99.90
7216;DHT22;3649;48.798;9.798;2023-08-30T08:35:06;19.90;99.90
7216;DHT22;3649;48.798;9.798;2023-08-30T08:37:33;20.00;99.90
7216;DHT22;3649;48.798;9.798;2023-08-30T08:40:00;20.00;99.90
7216;DHT22;3649;48.798;9.798;2023-08-30T08:42:35;20.00;99.90
7216;DHT22;3649;48.798;9.798;2023-08-30T08:45:03;20.10;99.90
7216;DHT22;3649;48.798;9.798;2023-08-30T08:47:34;20.10;99.90
7216;DHT22;3649;48.798;9.798;2023-08-30T08:50:02;20.20;99.90
7216;DHT22;3649;48.798;9.798;2023-08-30T08:52:32;20.20;99.90
7216;DHT22;3649;48.798;9.798;2023-08-30T08:55:09;20.20;99.90
7216;DHT22;3649;48.798;9.798;2023-08-30T08:57:38;20.20;99.90
7216;DHT22;3649;48.798;9.798;2023-08-30T09:00:05;20.30;99.90
7216;DHT22;3649;48.798;9.798;2023-08-30T09:02:33;20.30;99.90
7216;DHT22;3649;48.798;9.798;2023-08-30T09:05:00;20.40;99.90
7216;DHT22;3649;48.798;9.798;2023-08-30T09:07:28;20.70;99.90
7216;DHT22;3649;48.798;9.798;2023-08-30T09:09:57;20.40;99.90
7216;DHT22;3649;48.798;9.798;2023-08-30T09:12:24;20.40;99.90
7216;DHT22;3649;48.798;9.798;2023-08-30T09:14:55;20.40;99.90
7216;DHT22;3649;48.798;9.798;2023-08-30T09:17:22;20.40;99.90
7216;DHT22;3649;48.798;9.798;2023-08-30T09:19:49;20.50;99.90
7216;DHT22;3649;48.798;9.798;2023-08-30T09:22:17;20.50;99.90
7216;DHT22;3649;48.798;9.798;2023-08-30T09:24:44;20.60;99.90
7216;DHT22;3649;48.798;9.798;2023-08-30T09:27:11;20.60;99.90
7216;DHT22;3649;48.798;9.798;2023-08-30T09:29:37;20.60;99.90
7216;DHT22;3649;48.798;9.798;2023-08-30T09:32:04;20.60;99.90
7216;DHT22;3649;48.798;9.798;2023-08-30T09:34:31;20.70;99.90
7216;DHT22;3649;48.798;9.798;2023-08-30T09:36:58;20.70;99.90
7216;DHT22;3649;48.798;9.798;2023-08-30T09:39:31;20.60;99.90
7216;DHT22;3649;48.798;9.798;2023-08-30T09:41:59;20.70;99.90
7216;DHT22;3649;48.798;9.798;2023-08-30T09:44:29;20.80;99.90
7216;DHT22;3649;48.798;9.798;2023-08-30T09:46:56;20.90;99.90
7216;DHT22;3649;48.798;9.798;2023-08-30T09:49:25;20.80;99.90
7216;DHT22;3649;48.798;9.798;2023-08-30T09:51:54;20.80;99.90
7216;DHT22;3649;48.798;9.798;2023-08-30T09:54:25;20.70;99.90
7216;DHT22;3649;48.798;9.798;2023-08-30T09:56:55;20.70;99.90
7216;DHT22;3649;48.798;9.798;2023-08-30T09:59:25;20.80;99.90
7216;DHT22;3649;48.798;9.798;2023-08-30T10:01:52;20.90;99.90
7216;DHT22;3649;48.798;9.798;2023-08-30T10:04:40;20.80;99.90
7216;DHT22;3649;48.798;9.798;2023-08-30T10:07:09;20.80;99.90
7216;DHT22;3649;48.798;9.798;2023-08-30T10:09:38;20.80;99.90
7216;DHT22;3649;48.798;9.798;2023-08-30T10:12:29;20.90;99.90
7216;DHT22;3649;48.798;9.798;2023-08-30T10:14:57;20.90;99.90
7216;DHT22;3649;48.798;9.798;2023-08-30T10:17:28;21.00;99.90
7216;DHT22;3649;48.798;9.798;2023-08-30T10:19:57;21.00;99.90
7216;DHT22;3649;48.798;9.798;2023-08-30T10:22:26;21.00;99.90
7216;DHT22;3649;48.798;9.798;2023-08-30T10:24:56;21.00;99.90
7216;DHT22;3649;48.798;9.798;2023-08-30T10:27:30;21.00;99.90
7216;DHT22;3649;48.798;9.798;2023-08-30T10:29:59;21.00;99.90
7216;DHT22;3649;48.798;9.798;2023-08-30T10:32:26;21.10;99.90
7216;DHT22;3649;48.798;9.798;2023-08-30T10:34:53;21.10;99.90
7216;DHT22;3649;48.798;9.798;2023-08-30T10:37:25;21.10;99.90
7216;DHT22;3649;48.798;9.798;2023-08-30T10:39:58;21.10;99.90
7216;DHT22;3649;48.798;9.798;2023-08-30T10:42:25;21.10;99.90
7216;DHT22;3649;48.798;9.798;2023-08-30T10:44:57;21.10;99.90
7216;DHT22;3649;48.798;9.798;2023-08-30T10:47:39;21.10;99.90
7216;DHT22;3649;48.798;9.798;2023-08-30T10:50:08;21.20;99.90
7216;DHT22;3649;48.798;9.798;2023-08-30T10:52:36;21.20;99.90
7216;DHT22;3649;48.798;9.798;2023-08-30T10:55:08;21.20;99.90
7216;DHT22;3649;48.798;9.798;2023-08-30T10:57:36;21.30;99.90
7216;DHT22;3649;48.798;9.798;2023-08-30T11:02:46;21.30;99.90
7216;DHT22;3649;48.798;9.798;2023-08-30T11:05:19;21.40;99.90
7216;DHT22;3649;48.798;9.798;2023-08-30T11:07:47;21.40;99.90
7216;DHT22;3649;48.798;9.798;2023-08-30T11:10:16;20.70;99.90
7216;DHT22;3649;48.798;9.798;2023-08-30T11:12:44;21.40;99.90
7216;DHT22;3649;48.798;9.798;2023-08-30T11:15:14;21.40;99.90
7216;DHT22;3649;48.798;9.798;2023-08-30T11:17:42;21.40;99.90
7216;DHT22;3649;48.798;9.798;2023-08-30T11:20:11;21.50;99.90
7216;DHT22;3649;48.798;9.798;2023-08-30T11:22:43;21.50;99.90
7216;DHT22;3649;48.798;9.798;2023-08-30T11:25:12;21.50;99.90
7216;DHT22;3649;48.798;9.798;2023-08-30T11:27:40;21.50;99.90
7216;DHT22;3649;48.798;9.798;2023-08-30T11:30:09;21.40;99.90
7216;DHT22;3649;48.798;9.798;2023-08-30T11:32:40;21.50;99.90
7216;DHT22;3649;48.798;9.798;2023-08-30T11:35:10;21.50;99.90
7216;DHT22;3649;48.798;9.798;2023-08-30T11:37:37;21.50;99.90
7216;DHT22;3649;48.798;9.798;2023-08-30T11:40:05;21.60;99.90
7216;DHT22;3649;48.798;9.798;2023-08-30T11:42:33;21.60;99.90
7216;DHT22;3649;48.798;9.798;2023-08-30T11:45:00;21.50;99.90
7216;DHT22;3649;48.798;9.798;2023-08-30T11:47:28;21.50;99.90
7216;DHT22;3649;48.798;9.798;2023-08-30T11:49:59;21.60;99.90
7216;DHT22;3649;48.798;9.798;2023-08-30T11:52:27;21.60;99.90
7216;DHT22;3649;48.798;9.798;2023-08-30T11:54:54;21.60;99.90
7216;DHT22;3649;48.798;9.798;2023-08-30T11:57:21;21.50;99.90
7216;DHT22;3649;48.798;9.798;2023-08-30T11:59:48;21.60;99.90
7216;DHT22;3649;48.798;9.798;2023-08-30T12:02:17;21.70;99.90
7216;DHT22;3649;48.798;9.798;2023-08-30T12:04:46;21.70;99.90
7216;DHT22;3649;48.798;9.798;2023-08-30T12:07:23;21.70;99.90
7216;DHT22;3649;48.798;9.798;2023-08-30T12:09:50;21.70;99.90
7216;DHT22;3649;48.798;9.798;2023-08-30T12:12:18;21.70;99.90
7216;DHT22;3649;48.798;9.798;2023-08-30T12:14:45;21.70;99.90
7216;DHT22;3649;48.798;9.798;2023-08-30T12:17:12;21.70;99.90
7216;DHT22;3649;48.798;9.798;2023-08-30T12:19:39;21.70;99.90
7216;DHT22;3649;48.798;9.798;2023-08-30T12:22:09;21.80;99.90
7216;DHT22;3649;48.798;9.798;2023-08-30T12:24:46;20.20;99.90
7216;DHT22;3649;48.798;9.798;2023-08-30T12:27:13;21.80;99.90
7216;DHT22;3649;48.798;9.798;2023-08-30T12:29:40;21.80;99.90
7216;DHT22;3649;48.798;9.798;2023-08-30T12:32:08;21.90;99.90
7216;DHT22;3649;48.798;9.798;2023-08-30T12:34:35;21.80;99.90
7216;DHT22;3649;48.798;9.798;2023-08-30T12:37:03;21.80;99.90
7216;DHT22;3649;48.798;9.798;2023-08-30T12:39:31;21.80;99.90
7216;DHT22;3649;48.798;9.798;2023-08-30T12:41:58;21.90;99.90
7216;DHT22;3649;48.798;9.798;2023-08-30T12:44:26;21.90;99.90
7216;DHT22;3649;48.798;9.798;2023-08-30T12:46:53;21.90;99.90
7216;DHT22;3649;48.798;9.798;2023-08-30T12:49:20;22.00;99.90
7216;DHT22;3649;48.798;9.798;2023-08-30T12:51:47;22.00;99.90
7216;DHT22;3649;48.798;9.798;2023-08-30T12:54:14;22.00;99.90
7216;DHT22;3649;48.798;9.798;2023-08-30T12:56:41;22.00;99.90
7216;DHT22;3649;48.798;9.798;2023-08-30T12:59:08;22.00;99.90
7216;DHT22;3649;48.798;9.798;2023-08-30T13:01:35;22.10;99.90
7216;DHT22;3649;48.798;9.798;2023-08-30T13:04:06;22.10;99.90
7216;DHT22;3649;48.798;9.798;2023-08-30T13:06:34;22.00;99.90
7216;DHT22;3649;48.798;9.798;2023-08-30T13:09:01;22.10;99.90
7216;DHT22;3649;48.798;9.798;2023-08-30T13:11:29;22.20;99.90
7216;DHT22;3649;48.798;9.798;2023-08-30T13:13:59;22.20;99.90
7216;DHT22;3649;48.798;9.798;2023-08-30T13:16:26;22.30;99.90
7216;DHT22;3649;48.798;9.798;2023-08-30T13:18:53;22.30;99.90
7216;DHT22;3649;48.798;9.798;2023-08-30T13:21:20;22.40;99.90
7216;DHT22;3649;48.798;9.798;2023-08-30T13:23:56;22.40;99.90
7216;DHT22;3649;48.798;9.798;2023-08-30T13:26:23;22.40;99.90
7216;DHT22;3649;48.798;9.798;2023-08-30T13:28:50;22.40;99.90
7216;DHT22;3649;48.798;9.798;2023-08-30T13:31:17;22.40;99.90
7216;DHT22;3649;48.798;9.798;2023-08-30T13:33:44;22.40;99.90
7216;DHT22;3649;48.798;9.798;2023-08-30T13:36:11;22.50;99.90
7216;DHT22;3649;48.798;9.798;2023-08-30T13:38:38;22.40;99.90
7216;DHT22;3649;48.798;9.798;2023-08-30T13:41:05;22.40;99.90
7216;DHT22;3649;48.798;9.798;2023-08-30T13:43:32;22.40;99.90
7216;DHT22;3649;48.798;9.798;2023-08-30T13:45:59;22.40;99.90
7216;DHT22;3649;48.798;9.798;2023-08-30T13:48:26;22.40;99.90
7216;DHT22;3649;48.798;9.798;2023-08-30T13:50:53;22.30;99.90
7216;DHT22;3649;48.798;9.798;2023-08-30T13:53:20;22.10;99.90
7216;DHT22;3649;48.798;9.798;2023-08-30T13:55:47;22.10;99.90
7216;DHT22;3649;48.798;9.798;2023-08-30T13:58:15;22.10;99.90
7216;DHT22;3649;48.798;9.798;2023-08-30T14:00:44;22.10;99.90
7216;DHT22;3649;48.798;9.798;2023-08-30T14:03:11;22.10;99.90
7216;DHT22;3649;48.798;9.798;2023-08-30T14:05:39;22.00;99.90
7216;DHT22;3649;48.798;9.798;2023-08-30T14:08:08;22.00;99.90
7216;DHT22;3649;48.798;9.798;2023-08-30T14:10:36;22.00;99.90
7216;DHT22;3649;48.798;9.798;2023-08-30T14:13:03;22.00;99.90
7216;DHT22;3649;48.798;9.798;2023-08-30T14:15:31;23.70;99.90
7216;DHT22;3649;48.798;9.798;2023-08-30T14:17:59;21.90;99.90
7216;DHT22;3649;48.798;9.798;2023-08-30T14:20:27;21.90;99.90
7216;DHT22;3649;48.798;9.798;2023-08-30T14:22:55;21.90;99.90
7216;DHT22;3649;48.798;9.798;2023-08-30T14:25:21;21.90;99.90
7216;DHT22;3649;48.798;9.798;2023-08-30T14:27:48;21.90;99.90
7216;DHT22;3649;48.798;9.798;2023-08-30T14:30:16;22.00;99.90
7216;DHT22;3649;48.798;9.798;2023-08-30T14:32:43;22.00;99.90
7216;DHT22;3649;48.798;9.798;2023-08-30T14:35:10;22.00;99.90
7216;DHT22;3649;48.798;9.798;2023-08-30T14:37:38;22.00;99.90
7216;DHT22;3649;48.798;9.798;2023-08-30T14:40:07;21.90;99.90
7216;DHT22;3649;48.798;9.798;2023-08-30T14:42:34;21.80;99.90
7216;DHT22;3649;48.798;9.798;2023-08-30T14:45:01;21.70;99.90
7216;DHT22;3649;48.798;9.798;2023-08-30T14:47:30;21.70;99.90
7216;DHT22;3649;48.798;9.798;2023-08-30T14:49:58;21.70;99.90
7216;DHT22;3649;48.798;9.798;2023-08-30T14:52:27;21.70;99.90
7216;DHT22;3649;48.798;9.798;2023-08-30T14:54:54;21.70;99.90
7216;DHT22;3649;48.798;9.798;2023-08-30T14:57:22;21.60;99.90
7216;DHT22;3649;48.798;9.798;2023-08-30T14:59:51;21.60;99.90
7216;DHT22;3649;48.798;9.798;2023-08-30T15:02:18;21.60;99.90
7216;DHT22;3649;48.798;9.798;2023-08-30T15:04:45;21.60;99.90
7216;DHT22;3649;48.798;9.798;2023-08-30T15:07:12;21.60;99.90
7216;DHT22;3649;48.798;9.798;2023-08-30T15:09:38;21.70;99.90
7216;DHT22;3649;48.798;9.798;2023-08-30T15:12:06;21.70;99.90
7216;DHT22;3649;48.798;9.798;2023-08-30T15:14:34;21.70;99.90
7216;DHT22;3649;48.798;9.798;2023-08-30T15:17:01;21.70;99.90
7216;DHT22;3649;48.798;9.798;2023-08-30T15:19:28;21.70;99.90
7216;DHT22;3649;48.798;9.798;2023-08-30T15:21:55;21.60;99.90
7216;DHT22;3649;48.798;9.798;2023-08-30T15:24:22;21.60;99.90
7216;DHT22;3649;48.798;9.798;2023-08-30T15:26:49;21.60;99.90
7216;DHT22;3649;48.798;9.798;2023-08-30T15:29:16;21.60;99.90
7216;DHT22;3649;48.798;9.798;2023-08-30T15:31:43;21.60;99.90
7216;DHT22;3649;48.798;9.798;2023-08-30T15:34:11;21.50;99.90
7216;DHT22;3649;48.798;9.798;2023-08-30T15:36:38;21.60;99.90
7216;DHT22;3649;48.798;9.798;2023-08-30T15:39:06;21.60;99.90
7216;DHT22;3649;48.798;9.798;2023-08-30T15:41:33;21.60;99.90
7216;DHT22;3649;48.798;9.798;2023-08-30T15:43:59;21.60;99.90
7216;DHT22;3649;48.798;9.798;2023-08-30T15:46:27;21.50;99.90
7216;DHT22;3649;48.798;9.798;2023-08-30T15:48:54;21.50;99.90
7216;DHT22;3649;48.798;9.798;2023-08-30T15:51:22;21.50;99.90
7216;DHT22;3649;48.798;9.798;2023-08-30T15:53:51;21.50;99.90
7216;DHT22;3649;48.798;9.798;2023-08-30T15:56:22;21.50;99.90
7216;DHT22;3649;48.798;9.798;2023-08-30T15:58:50;21.50;99.90
7216;DHT22;3649;48.798;9.798;2023-08-30T16:01:17;21.50;99.90
7216;DHT22;3649;48.798;9.798;2023-08-30T16:03:47;21.50;99.90
7216;DHT22;3649;48.798;9.798;2023-08-30T16:06:14;21.50;99.90
7216;DHT22;3649;48.798;9.798;2023-08-30T16:08:41;21.50;99.90
7216;DHT22;3649;48.798;9.798;2023-08-30T16:11:07;21.50;99.90
7216;DHT22;3649;48.798;9.798;2023-08-30T16:13:34;21.50;99.90
7216;DHT22;3649;48.798;9.798;2023-08-30T16:16:01;21.50;99.90